Time;durP1;ratioP1;P1;durP2;ratioP2;P2;SDS_P1;SDS_P2;PMS_P1;PMS_P2;Temp;Humidity;BMP_temperature;BMP_pressure;BME280_temperature;BME280_humidity;BME280_pressure;Samples;Min_cycle;Max_cycle;Signal;HPM_P1;HPM_P2
2022/01/20 00:03:22;;;;;;;25.52;11.27;;;;;;;4.10;44.71;101594.94;5013449;28;20088;-82
2022/01/20 00:08:35;;;;;;;26.83;13.85;;;;;;;4.13;44.74;101570.88;5013889;28;20507;-81
2022/01/20 00:27:31;;;;;;;27.40;14.82;;;;;;;4.07;45.06;101571.09;5013756;28;20041;-81
2022/01/20 00:32:48;;;;;;;26.73;15.93;;;;;;;4.15;45.03;101561.03;5014642;28;20494;-82
2022/01/20 00:35:31;;;;;;;25.45;14.23;;;;;;;4.11;45.07;101561.22;5014014;28;20350;-82
2022/01/20 00:37:57;;;;;;;34.83;12.77;;;;;;;4.15;44.99;101555.72;4996420;28;20054;-81
2022/01/20 00:40:23;;;;;;;26.05;12.75;;;;;;;4.15;45.08;101547.72;5013829;28;20100;-82
2022/01/20 00:42:50;;;;;;;27.63;13.43;;;;;;;4.24;44.64;101563.34;5014180;28;20517;-82
2022/01/20 00:45:15;;;;;;;23.63;12.63;;;;;;;4.20;44.93;101543.06;4996115;28;20038;-81
2022/01/20 00:47:41;;;;;;;23.25;12.30;;;;;;;4.29;44.90;101553.34;4996534;28;20491;-81
2022/01/20 00:50:09;;;;;;;31.27;12.93;;;;;;;4.27;44.54;101549.03;4996267;28;20036;-82
2022/01/20 00:52:34;;;;;;;27.45;13.07;;;;;;;4.28;44.53;101537.44;5013509;28;20029;-82
2022/01/20 00:55:00;;;;;;;23.70;12.27;;;;;;;4.13;44.91;101538.91;5018679;28;20518;-81
2022/01/20 00:57:25;;;;;;;22.58;12.00;;;;;;;4.16;45.01;101530.81;5016232;28;20474;-82
2022/01/20 00:59:51;;;;;;;22.75;12.05;;;;;;;4.24;44.81;101536.72;5016617;28;20092;-81
2022/01/20 01:02:17;;;;;;;28.02;10.93;;;;;;;4.28;44.90;101535.63;5034670;28;20034;-81
2022/01/20 01:04:43;;;;;;;27.00;10.02;;;;;;;4.27;44.87;101539.25;5034762;28;20098;-82
2022/01/20 01:09:37;;;;;;;22.02;10.05;;;;;;;4.18;44.72;101515.66;5033840;28;20029;-82
2022/01/20 01:12:05;;;;;;;23.75;9.85;;;;;;;4.22;44.68;101522.56;5033688;28;20082;-82
2022/01/20 01:14:32;;;;;;;20.30;9.38;;;;;;;4.26;44.64;101529.50;5033606;28;20033;-81
2022/01/20 01:24:35;;;;;;;21.08;10.23;;;;;;;4.06;45.13;101481.56;5033733;28;20037;-81
2022/01/20 01:27:00;;;;;;;22.52;11.35;;;;;;;4.19;44.88;101500.56;5033805;28;20030;-82
2022/01/20 01:32:14;;;;;;;20.85;9.90;;;;;;;4.16;45.08;101488.22;5002063;28;20143;-82
2022/01/20 01:34:46;;;;;;;24.40;10.63;;;;;;;4.15;44.75;101478.50;5033853;28;20029;-82
2022/01/20 01:37:36;;;;;;;18.00;9.98;;;;;;;4.08;44.85;101471.69;5037845;28;20026;-81
2022/01/20 01:39:58;;;;;;;23.25;11.05;;;;;;;4.02;45.01;101463.97;5033463;28;20112;-81
2022/01/20 01:42:30;;;;;;;18.58;9.73;;;;;;;4.05;45.33;101454.97;5036040;28;20029;-83
2022/01/20 01:45:42;;;;;;;24.17;10.57;;;;;;;4.13;45.40;101467.03;5039814;28;20461;-82
2022/01/20 01:48:09;;;;;;;42.58;18.88;;;;;;;4.13;44.97;101459.06;5040931;28;20045;-83
2022/01/20 01:50:35;;;;;;;16.55;9.82;;;;;;;4.17;44.99;101459.78;5041566;28;20033;-83
2022/01/20 01:53:06;;;;;;;21.13;9.77;;;;;;;4.18;44.85;101451.75;5040346;28;20026;-83
2022/01/20 01:55:32;;;;;;;18.58;9.00;;;;;;;4.21;45.14;101459.63;5037824;28;20410;-82
2022/01/20 01:57:58;;;;;;;17.38;9.27;;;;;;;4.16;45.14;101445.63;5038342;28;20036;-83
2022/01/20 02:00:24;;;;;;;18.23;8.55;;;;;;;4.18;44.77;101451.75;5041813;28;20029;-80
2022/01/20 02:02:49;;;;;;;19.85;8.45;;;;;;;4.07;45.09;101439.81;5038644;28;20499;-82
2022/01/20 02:05:16;;;;;;;21.65;9.57;;;;;;;4.06;45.12;101444.28;5038584;28;20021;-81
2022/01/20 02:18:49;;;;;;;18.42;9.45;;;;;;;3.90;45.15;101395.28;5040001;28;20029;-82
2022/01/20 02:21:15;;;;;;;16.58;9.57;;;;;;;3.98;45.37;101390.50;5039563;28;20048;-82
2022/01/20 02:23:41;;;;;;;18.00;9.13;;;;;;;4.07;45.54;101403.41;5023169;28;20084;-83
2022/01/20 02:26:07;;;;;;;20.75;10.10;;;;;;;3.95;45.35;101384.44;5038627;28;20021;-83
2022/01/20 02:28:33;;;;;;;18.52;10.40;;;;;;;4.07;45.12;101399.88;5037177;28;20052;-81
2022/01/20 02:30:59;;;;;;;21.73;11.93;;;;;;;4.08;45.00;101402.50;5040688;28;20109;-82
2022/01/20 02:33:27;;;;;;;21.77;10.48;;;;;;;4.14;45.02;101391.59;5040371;28;20105;-82
2022/01/20 02:35:59;;;;;;;25.10;11.18;;;;;;;4.05;45.06;101381.31;5044100;28;19998;-83
2022/01/20 02:46:27;;;;;;;15.38;8.88;;;;;;;3.98;45.35;101363.88;5016647;28;20037;-83
2022/01/20 02:48:52;;;;;;;26.42;9.57;;;;;;;4.06;44.95;101366.22;5037900;28;20100;-82
2022/01/20 02:51:18;;;;;;;23.73;10.10;;;;;;;4.06;45.16;101366.22;5035978;28;20032;-82
2022/01/20 02:53:43;;;;;;;26.92;11.05;;;;;;;4.10;45.05;101360.69;5016258;28;20087;-82
2022/01/20 02:56:08;;;;;;;24.30;11.32;;;;;;;3.98;44.97;101347.91;5002428;28;20084;-82
2022/01/20 02:58:34;;;;;;;24.20;11.63;;;;;;;3.94;45.03;101341.00;4997652;28;20018;-82
2022/01/20 03:01:01;;;;;;;31.15;14.23;;;;;;;4.06;45.35;101355.59;5015014;28;20523;-82
2022/01/20 03:03:30;;;;;;;24.02;11.82;;;;;;;4.03;45.29;101345.94;5022111;28;20025;-81
2022/01/20 03:05:57;;;;;;;32.17;14.38;;;;;;;4.16;45.05;101357.75;5011045;28;20029;-85
2022/01/20 03:08:23;;;;;;;27.60;10.95;;;;;;;4.14;44.76;101340.13;5011506;28;20041;-81
2022/01/20 03:10:48;;;;;;;32.10;13.30;;;;;;;3.85;45.34;101320.13;5022611;28;20041;-82
2022/01/20 03:13:14;;;;;;;26.92;14.10;;;;;;;3.99;45.27;101325.69;5023711;28;20026;-82
2022/01/20 03:15:39;;;;;;;32.38;15.45;;;;;;;3.96;45.26;101322.31;5018729;28;20018;-81
2022/01/20 03:18:05;;;;;;;23.98;9.82;;;;;;;4.07;45.22;101328.88;5023862;28;20109;-84
2022/01/20 03:20:33;;;;;;;24.85;9.75;;;;;;;4.07;45.22;101334.22;5011091;28;20026;-85
2022/01/20 03:23:00;;;;;;;19.20;9.48;;;;;;;4.03;45.33;101319.31;5024290;28;20064;-82
2022/01/20 03:25:26;;;;;;;17.23;10.90;;;;;;;4.02;44.96;101312.25;5014819;28;20061;-82
2022/01/20 03:27:51;;;;;;;18.60;9.43;;;;;;;3.99;45.37;101320.38;4997258;28;20048;-82
2022/01/20 03:30:17;;;;;;;26.83;9.02;;;;;;;4.08;45.17;101319.97;5014864;28;20051;-81
2022/01/20 03:32:42;;;;;;;24.13;9.90;;;;;;;4.04;45.13;101318.38;5014879;28;20102;-81
2022/01/20 03:35:08;;;;;;;25.98;9.52;;;;;;;3.92;45.29;101302.94;5015397;28;20034;-81
2022/01/20 03:37:35;;;;;;;18.77;8.55;;;;;;;3.87;45.36;101301.41;5014763;28;20109;-81
2022/01/20 03:40:01;;;;;;;20.98;10.13;;;;;;;4.05;45.46;101317.44;5014728;28;20030;-81
2022/01/20 03:42:26;;;;;;;23.20;9.55;;;;;;;3.90;45.46;101307.47;5015074;28;20030;-81
2022/01/20 03:44:52;;;;;;;19.60;9.10;;;;;;;3.93;45.52;101312.66;5014623;28;20100;-81
2022/01/20 03:47:19;;;;;;;22.25;9.45;;;;;;;3.93;45.21;101304.69;5014216;28;20034;-82
2022/01/20 03:49:55;;;;;;;18.02;9.52;;;;;;;3.86;45.47;101316.50;5020433;28;20480;-81
2022/01/20 03:52:20;;;;;;;19.58;8.93;;;;;;;3.71;45.64;101290.56;5013705;28;20056;-82
2022/01/20 03:54:46;;;;;;;29.95;10.90;;;;;;;3.73;45.66;101305.53;5016723;28;20058;-81
2022/01/20 03:57:12;;;;;;;19.45;9.73;;;;;;;3.65;46.20;101304.13;5015775;28;20503;-81
2022/01/20 03:59:37;;;;;;;27.20;11.15;;;;;;;3.70;45.84;101305.66;5033242;28;20044;-80
2022/01/20 04:02:05;;;;;;;22.85;9.55;;;;;;;3.63;46.37;101292.69;5033915;28;20026;-81
2022/01/20 04:04:31;;;;;;;26.88;9.93;;;;;;;3.68;46.36;101306.66;5033433;28;20136;-81
2022/01/20 04:06:56;;;;;;;25.42;11.65;;;;;;;3.59;46.09;101280.44;5033956;28;20028;-81
2022/01/20 04:09:22;;;;;;;20.10;10.32;;;;;;;3.49;46.48;101282.63;5033600;28;20017;-81
2022/01/20 04:11:49;;;;;;;38.10;12.30;;;;;;;3.48;46.61;101293.34;5034042;28;20061;-81
2022/01/20 04:14:14;;;;;;;18.83;9.10;;;;;;;3.53;46.32;101286.88;5035666;28;20483;-81
2022/01/20 04:19:18;;;;;;;33.10;9.40;;;;;;;3.63;46.32;101303.31;5033418;28;20048;-81
2022/01/20 04:21:44;;;;;;;21.55;9.38;;;;;;;3.34;46.57;101269.09;5035098;28;20463;-82
2022/01/20 04:24:10;;;;;;;15.63;8.00;;;;;;;3.42;46.39;101270.53;5015809;28;20025;-81
2022/01/20 04:26:38;;;;;;;22.27;8.63;;;;;;;3.54;46.52;101290.41;5033497;28;20025;-82
2022/01/20 04:29:05;;;;;;;33.38;9.55;;;;;;;3.41;46.62;101273.22;5034507;28;20124;-83
2022/01/20 04:31:32;;;;;;;18.15;10.60;;;;;;;3.43;46.99;101300.63;5033289;28;20032;-82
2022/01/20 04:33:59;;;;;;;17.83;8.63;;;;;;;3.30;46.99;101268.38;5034044;28;20079;-82
2022/01/20 04:36:26;;;;;;;24.00;9.52;;;;;;;3.40;46.75;101284.78;5033460;28;20021;-82
2022/01/20 04:38:52;;;;;;;23.27;9.95;;;;;;;3.38;46.78;101286.66;5034261;28;20021;-81
2022/01/20 04:41:18;;;;;;;27.75;11.80;;;;;;;3.31;47.14;101280.72;5034054;28;20017;-81
2022/01/20 04:43:44;;;;;;;30.10;15.02;;;;;;;3.36;47.19;101283.22;5033719;28;20037;-81
2022/01/20 04:48:59;;;;;;;28.25;12.45;;;;;;;3.32;47.17;101270.97;5033663;28;20022;-82
2022/01/20 04:59:39;;;;;;;40.45;15.90;;;;;;;3.26;47.45;101267.63;5033130;28;20410;-82
2022/01/20 05:02:04;;;;;;;21.33;11.52;;;;;;;3.30;47.15;101266.56;5032668;28;20108;-83
2022/01/20 05:04:30;;;;;;;26.33;12.55;;;;;;;3.12;47.37;101221.31;5033385;28;20025;-82
2022/01/20 05:06:57;;;;;;;28.48;13.07;;;;;;;3.20;47.03;101246.63;5032902;28;20109;-82
2022/01/20 05:09:23;;;;;;;27.63;13.05;;;;;;;3.32;47.30;101250.56;5032788;28;20021;-82
2022/01/20 05:12:03;;;;;;;37.00;14.63;;;;;;;3.34;47.36;101255.81;5032800;28;20439;-81
2022/01/20 05:14:29;;;;;;;32.97;13.20;;;;;;;3.28;47.67;101255.13;5033432;28;20449;-81
2022/01/20 05:16:56;;;;;;;31.55;13.63;;;;;;;3.32;47.25;101260.31;5015608;28;20120;-81
2022/01/20 05:19:30;;;;;;;29.98;12.90;;;;;;;3.27;47.45;101240.09;5037257;28;20034;-83
2022/01/20 05:21:56;;;;;;;33.78;11.30;;;;;;;3.22;47.36;101236.78;5018734;28;20057;-82
2022/01/20 05:24:22;;;;;;;26.33;12.63;;;;;;;3.35;47.49;101249.56;5036930;28;20030;-82
2022/01/20 05:26:52;;;;;;;34.47;14.10;;;;;;;3.27;47.27;101234.78;5046067;28;20053;-82
2022/01/20 05:29:19;;;;;;;30.30;14.60;;;;;;;3.38;47.43;101239.66;5037997;28;20125;-83
2022/01/20 05:31:44;;;;;;;35.08;12.73;;;;;;;3.28;47.33;101217.91;5035771;28;20116;-83
2022/01/20 05:34:10;;;;;;;30.92;14.10;;;;;;;3.30;47.17;101232.00;5036259;28;20491;-84
2022/01/20 05:36:36;;;;;;;27.50;13.60;;;;;;;3.40;47.47;101236.94;5018098;28;20467;-85
2022/01/20 05:39:03;;;;;;;30.73;12.23;;;;;;;3.32;47.46;101234.59;5037672;28;20104;-80
2022/01/20 05:41:28;;;;;;;37.97;12.48;;;;;;;3.37;47.36;101231.75;5035722;28;20033;-79
2022/01/20 05:43:54;;;;;;;32.97;14.23;;;;;;;3.40;47.43;101228.94;5035999;28;20037;-82
2022/01/20 05:46:24;;;;;;;32.35;14.57;;;;;;;3.28;47.44;101220.56;5035910;28;20372;-79
2022/01/20 05:48:50;;;;;;;24.23;11.45;;;;;;;3.21;47.48;101213.78;5037559;28;20063;-91
2022/01/20 05:51:16;;;;;;;24.42;10.90;;;;;;;3.29;47.32;101224.09;5037576;28;20021;-83
2022/01/20 05:53:42;;;;;;;26.52;11.75;;;;;;;3.28;47.69;101225.03;5036385;28;20107;-78
2022/01/20 05:56:11;;;;;;;21.38;11.20;;;;;;;3.39;47.44;101236.09;5036391;28;20055;-85
2022/01/20 05:58:43;;;;;;;24.38;12.23;;;;;;;3.43;47.60;101226.16;5035843;28;20479;-84
2022/01/20 06:01:09;;;;;;;32.58;10.95;;;;;;;3.42;47.63;101221.81;5018506;28;20029;-85
2022/01/20 06:03:37;;;;;;;42.58;11.82;;;;;;;3.49;47.41;101221.47;5035816;28;20462;-85
2022/01/20 06:06:08;;;;;;;32.13;11.57;;;;;;;3.40;47.31;101202.38;5017783;28;20033;-84
2022/01/20 06:08:36;;;;;;;30.48;12.45;;;;;;;3.52;47.31;101215.13;5035475;28;20493;-84
2022/01/20 06:11:03;;;;;;;21.42;11.20;;;;;;;3.62;47.29;101213.81;5018148;28;20048;-84
2022/01/20 06:13:29;;;;;;;23.15;12.30;;;;;;;3.59;47.50;101211.28;5017843;28;20022;-83
2022/01/20 06:15:55;;;;;;;22.10;10.82;;;;;;;3.71;47.17;101205.44;5036168;28;20021;-84
2022/01/20 06:18:20;;;;;;;25.50;11.68;;;;;;;3.64;46.88;101190.69;5035630;28;20025;-89
2022/01/20 06:20:47;;;;;;;39.03;11.77;;;;;;;3.66;47.11;101199.47;5017659;28;20371;-84
2022/01/20 06:23:12;;;;;;;47.38;13.27;;;;;;;3.66;47.28;101215.44;5036286;28;20036;-89
2022/01/20 06:25:38;;;;;;;20.95;11.13;;;;;;;3.62;47.20;101192.53;5018017;28;20025;-88
2022/01/20 06:28:04;;;;;;;32.58;11.25;;;;;;;3.69;46.82;101196.66;5018225;28;20453;-86
2022/01/20 06:30:32;;;;;;;32.85;13.27;;;;;;;3.62;47.13;101179.25;5018903;28;20022;-86
2022/01/20 06:32:58;;;;;;;26.20;11.43;;;;;;;3.82;47.07;101198.69;5035919;28;20025;-86
2022/01/20 06:35:24;;;;;;;29.38;12.25;;;;;;;3.80;47.13;101189.06;5017525;28;20453;-86
2022/01/20 06:37:49;;;;;;;26.45;11.85;;;;;;;3.77;46.90;101182.09;5017290;28;20025;-86
2022/01/20 06:40:15;;;;;;;24.67;11.32;;;;;;;3.76;46.71;101175.03;5035370;28;20479;-87
2022/01/20 06:42:41;;;;;;;38.05;14.02;;;;;;;3.90;46.77;101195.72;5038971;28;20079;-85
2022/01/20 06:45:10;;;;;;;42.58;16.75;;;;;;;3.96;46.68;101190.13;5039859;28;20505;-88
2022/01/20 06:47:36;;;;;;;49.45;17.02;;;;;;;3.91;46.81;101181.50;5004890;28;20021;-91
2022/01/20 06:50:03;;;;;;;36.75;14.70;;;;;;;4.09;46.90;101185.97;5038048;28;20032;-83
2022/01/20 06:52:28;;;;;;;44.88;17.88;;;;;;;4.13;46.50;101178.69;5049636;28;20053;-80
2022/01/20 06:54:55;;;;;;;42.33;17.52;;;;;;;4.22;46.69;101181.78;5039935;28;20049;-81
2022/01/20 06:57:21;;;;;;;25.63;13.18;;;;;;;4.23;46.46;101183.53;5058367;28;20017;-81
2022/01/20 06:59:47;;;;;;;39.08;12.98;;;;;;;4.29;46.21;101180.56;5037600;28;20031;-80
2022/01/20 07:02:14;;;;;;;43.33;15.02;;;;;;;4.35;46.62;101174.97;5055814;28;20086;-85
2022/01/20 07:04:40;;;;;;;40.35;13.52;;;;;;;4.37;45.78;101175.75;5057118;28;20025;-84
2022/01/20 07:07:06;;;;;;;31.92;13.73;;;;;;;4.36;45.92;101176.69;5067365;28;20029;-89
2022/01/20 07:09:33;;;;;;;33.40;15.02;;;;;;;4.31;45.90;101162.72;5058445;28;20108;-86
2022/01/20 07:12:00;;;;;;;27.35;12.57;;;;;;;4.38;45.76;101156.19;5050175;28;20486;-90
2022/01/20 07:14:26;;;;;;;42.50;12.00;;;;;;;4.48;45.80;101166.41;5037229;28;20098;-86
2022/01/20 07:16:52;;;;;;;34.40;11.90;;;;;;;4.48;45.39;101153.94;5049408;28;20549;-87
2022/01/20 07:19:18;;;;;;;49.95;14.25;;;;;;;4.53;45.47;101165.22;5054893;28;20049;-81
2022/01/20 07:21:44;;;;;;;25.95;12.15;;;;;;;4.63;45.18;101149.66;5036281;28;20036;-84
2022/01/20 07:24:10;;;;;;;52.72;12.55;;;;;;;4.74;45.29;101169.53;5055149;28;20472;-84
2022/01/20 07:26:35;;;;;;;28.83;12.57;;;;;;;4.61;44.87;101147.09;5036065;28;20029;-85
2022/01/20 07:29:01;;;;;;;29.60;11.93;;;;;;;4.60;45.43;101144.50;5055163;28;20028;-86
2022/01/20 07:31:26;;;;;;;52.47;16.27;;;;;;;4.58;45.24;101114.41;5037370;28;20024;-86
2022/01/20 07:33:52;;;;;;;36.42;14.32;;;;;;;4.79;45.20;101127.53;5037243;28;20027;-87
2022/01/20 07:36:18;;;;;;;51.10;15.25;;;;;;;4.92;44.99;101127.81;5054974;28;20526;-86
2022/01/20 07:38:54;;;;;;;38.03;13.73;;;;;;;4.77;45.12;101104.59;5053064;28;20108;-94
2022/01/20 07:41:20;;;;;;;35.13;12.45;;;;;;;4.88;44.89;101123.56;5016743;28;20942;-88
2022/01/20 07:43:46;;;;;;;32.55;13.20;;;;;;;4.92;44.65;101119.81;5034614;28;20108;-84
2022/01/20 07:46:11;;;;;;;44.13;14.73;;;;;;;5.03;44.66;101128.13;5039091;28;20024;-83
2022/01/20 07:48:37;;;;;;;26.88;12.77;;;;;;;4.98;44.88;101106.16;5053853;28;20033;-85
2022/01/20 07:51:05;;;;;;;33.85;13.25;;;;;;;5.24;44.57;101136.81;5036347;28;20025;-84
2022/01/20 07:53:35;;;;;;;28.23;11.48;;;;;;;5.33;43.99;101142.53;5036657;28;20025;-89
2022/01/20 07:56:01;;;;;;;37.92;14.50;;;;;;;5.38;43.94;101140.50;5056717;28;20182;-93
2022/01/20 07:58:27;;;;;;;39.25;14.70;;;;;;;5.25;43.95;101112.75;5039613;28;20025;-94
2022/01/20 08:00:52;;;;;;;42.72;15.43;;;;;;;5.19;43.92;101107.75;5039704;28;20047;-89
2022/01/20 08:03:18;;;;;;;35.70;15.38;;;;;;;5.13;44.28;101118.72;5037546;28;20023;-91
2022/01/20 08:05:43;;;;;;;34.22;14.07;;;;;;;5.32;44.08;101137.31;5039542;28;20036;-90
2022/01/20 08:08:09;;;;;;;26.45;12.18;;;;;;;5.38;43.95;101116.47;5040006;28;20025;-94
2022/01/20 08:10:35;;;;;;;34.78;14.55;;;;;;;5.44;43.56;101118.81;5039455;28;20025;-93
2022/01/20 08:13:02;;;;;;;35.85;15.20;;;;;;;5.42;43.86;101106.53;5038594;28;20036;-89
2022/01/20 08:15:28;;;;;;;32.30;13.40;;;;;;;5.41;43.78;101108.31;5059626;28;20070;-90
2022/01/20 08:17:54;;;;;;;27.60;11.50;;;;;;;5.56;43.61;101121.81;5058328;28;20033;-92
2022/01/20 08:20:19;;;;;;;20.63;12.32;;;;;;;5.57;43.54;101118.19;5040820;28;20504;-91
2022/01/20 08:22:45;;;;;;;36.17;13.32;;;;;;;5.67;43.49;101122.09;5054817;28;20025;-89
2022/01/20 08:25:14;;;;;;;35.38;15.98;;;;;;;5.71;43.65;101118.34;5075745;28;20029;-86
2022/01/20 08:27:42;;;;;;;25.88;13.35;;;;;;;5.88;43.58;101126.31;5051451;28;20032;-86
2022/01/20 08:30:11;;;;;;;44.83;17.60;;;;;;;5.91;43.47;101118.13;5061445;28;20033;-85
2022/01/20 08:32:37;;;;;;;28.48;12.45;;;;;;;5.98;43.26;101124.88;5060296;28;20029;-88
2022/01/20 08:35:04;;;;;;;44.13;13.57;;;;;;;6.03;43.52;101117.47;5056228;28;20029;-95
2022/01/20 08:37:30;;;;;;;29.20;13.05;;;;;;;6.11;43.44;101099.25;5036755;28;20025;-84
2022/01/20 08:39:56;;;;;;;61.28;19.85;;;;;;;6.32;42.97;101108.72;5057373;28;20032;-91
2022/01/20 08:42:22;;;;;;;49.50;22.38;;;;;;;6.44;42.84;101116.03;5037580;28;20033;-85
2022/01/20 08:44:48;;;;;;;34.40;15.00;;;;;;;6.67;43.40;101116.53;5055461;28;20059;-83
2022/01/20 08:47:17;;;;;;;35.97;17.23;;;;;;;6.70;42.04;101114.53;5055701;28;20029;-82
2022/01/20 08:49:47;;;;;;;51.33;13.18;;;;;;;6.81;41.94;101112.13;5057501;28;20025;-78
2022/01/20 08:52:12;;;;;;;41.78;12.48;;;;;;;6.85;42.05;101110.13;5054384;28;20107;-82
2022/01/20 08:54:38;;;;;;;30.27;13.07;;;;;;;6.84;42.18;101111.94;5040949;28;20505;-86
2022/01/20 08:57:04;;;;;;;68.97;27.88;;;;;;;7.00;41.86;101122.63;5039321;28;20141;-83
2022/01/20 08:59:30;;;;;;;28.80;14.65;;;;;;;7.08;41.66;101115.84;5037940;28;20029;-83
2022/01/20 09:01:55;;;;;;;27.80;13.30;;;;;;;7.16;41.51;101123.41;5038003;28;20056;-83
2022/01/20 09:04:21;;;;;;;26.27;13.38;;;;;;;7.27;40.98;101110.28;5038991;28;20486;-86
2022/01/20 09:06:47;;;;;;;26.42;11.88;;;;;;;7.24;40.44;101118.47;5020385;28;20025;-85
2022/01/20 09:09:16;;;;;;;29.58;12.48;;;;;;;7.39;40.47;101109.53;5038136;28;20026;-89
2022/01/20 09:11:51;;;;;;;32.95;12.32;;;;;;;7.37;40.26;101100.72;5037090;28;20032;-80
2022/01/20 09:17:00;;;;;;;32.00;13.13;;;;;;;7.56;40.29;101100.47;5036023;28;20072;-82
2022/01/20 09:19:26;;;;;;;41.88;13.57;;;;;;;7.58;39.86;101080.66;5037086;28;20463;-84
2022/01/20 09:21:51;;;;;;;28.60;12.70;;;;;;;7.70;40.12;101086.25;5038680;28;20025;-86
2022/01/20 09:24:17;;;;;;;42.75;13.25;;;;;;;7.71;39.58;101070.06;5039559;28;20040;-83
2022/01/20 09:26:42;;;;;;;30.83;12.65;;;;;;;7.75;39.61;101078.78;5040001;28;20146;-84
2022/01/20 09:29:10;;;;;;;40.13;13.77;;;;;;;7.80;39.77;101068.66;5020823;28;20091;-82
2022/01/20 09:31:38;;;;;;;39.10;13.25;;;;;;;7.90;39.68;101059.91;5018238;28;20502;-77
2022/01/20 09:34:04;;;;;;;22.77;11.60;;;;;;;8.06;39.29;101054.44;5018414;28;20124;-83
2022/01/20 09:36:30;;;;;;;23.60;12.55;;;;;;;8.13;39.11;101050.44;5035383;28;20375;-80
2022/01/20 09:38:56;;;;;;;28.25;12.05;;;;;;;8.23;38.47;101032.78;5034406;28;20025;-79
2022/01/20 09:41:21;;;;;;;34.78;12.75;;;;;;;8.41;38.52;101036.97;5036058;28;20104;-80
2022/01/20 09:43:47;;;;;;;40.05;11.77;;;;;;;8.50;38.40;101022.94;5036789;28;20105;-79
2022/01/20 09:46:12;;;;;;;35.78;13.40;;;;;;;8.69;37.73;101030.63;5037931;28;20024;-80
2022/01/20 09:48:38;;;;;;;27.45;12.60;;;;;;;8.81;37.95;101018.25;5035796;28;20021;-79
2022/01/20 09:51:04;;;;;;;28.27;10.88;;;;;;;8.73;37.54;101002.66;5034622;28;20087;-79
2022/01/20 09:53:30;;;;;;;31.63;12.75;;;;;;;8.87;37.45;100991.00;5035305;28;20075;-80
2022/01/20 09:55:57;;;;;;;28.33;11.80;;;;;;;8.88;36.85;100987.34;5034809;28;20021;-80
2022/01/20 09:58:23;;;;;;;32.20;12.88;;;;;;;8.91;37.23;100989.81;5033565;28;20056;-80
2022/01/20 10:00:51;;;;;;;40.75;14.05;;;;;;;8.82;37.06;100977.03;5034617;28;20467;-79
2022/01/20 10:03:20;;;;;;;24.58;10.82;;;;;;;8.98;36.82;100977.69;5034898;28;20022;-79
2022/01/20 10:05:53;;;;;;;28.48;12.45;;;;;;;8.98;37.13;100978.56;5034611;28;20032;-79
2022/01/20 10:08:24;;;;;;;27.25;11.60;;;;;;;9.13;36.48;100965.91;5017314;28;20032;-79
2022/01/20 10:10:58;;;;;;;28.30;11.18;;;;;;;9.24;36.53;100957.94;5035166;28;20025;-80
2022/01/20 10:13:46;;;;;;;29.58;11.57;;;;;;;9.34;36.55;100956.34;5035379;28;20435;-81
2022/01/20 10:16:15;;;;;;;26.63;11.20;;;;;;;9.46;36.33;100962.66;5027385;28;20121;-81
2022/01/20 10:18:53;;;;;;;28.23;11.80;;;;;;;9.63;36.43;100952.41;5034827;28;20026;-80
2022/01/20 10:21:31;;;;;;;23.52;10.77;;;;;;;9.76;35.83;100947.00;5034928;28;20025;-81
2022/01/20 10:24:13;;;;;;;31.52;13.02;;;;;;;9.84;35.78;100940.13;5034836;28;20033;-80
2022/01/20 10:26:41;;;;;;;27.27;12.65;;;;;;;9.79;35.48;100934.22;5035865;28;20033;-80
2022/01/20 10:29:10;;;;;;;21.00;11.45;;;;;;;9.94;35.49;100926.00;5035600;28;20056;-81
2022/01/20 10:31:45;;;;;;;40.38;14.27;;;;;;;10.09;35.50;100923.03;5034355;28;20502;-80
2022/01/20 10:34:28;;;;;;;23.30;12.23;;;;;;;10.25;34.96;100909.31;5034570;28;20056;-79
2022/01/20 10:36:55;;;;;;;29.60;12.20;;;;;;;10.31;34.96;100914.22;5034657;28;20550;-81
2022/01/20 10:39:44;;;;;;;32.63;11.65;;;;;;;10.40;34.64;100912.72;5034632;28;20095;-80
2022/01/20 10:42:12;;;;;;;20.45;10.32;;;;;;;10.42;34.14;100902.69;5034835;28;20029;-80
2022/01/20 10:44:50;;;;;;;20.60;10.60;;;;;;;10.36;33.76;100904.00;5034989;28;20478;-81
2022/01/20 10:47:28;;;;;;;22.23;10.35;;;;;;;10.36;33.73;100895.94;5034163;28;20045;-79
2022/01/20 10:49:54;;;;;;;39.60;10.30;;;;;;;10.24;34.34;100881.56;5034198;28;20025;-80
2022/01/20 10:52:32;;;;;;;22.60;9.80;;;;;;;10.31;34.22;100881.97;5034349;28;20025;-80
2022/01/20 10:54:58;;;;;;;28.30;10.88;;;;;;;10.37;34.53;100877.00;5035861;28;20030;-81
2022/01/20 10:57:32;;;;;;;29.27;10.55;;;;;;;10.52;34.39;100866.88;5034189;28;20049;-81
2022/01/20 11:00:05;;;;;;;35.30;17.85;;;;;;;10.67;33.63;100864.84;5033849;28;20028;-80
2022/01/20 11:02:31;;;;;;;31.83;12.00;;;;;;;10.84;33.61;100864.38;5034440;28;20049;-79
2022/01/20 11:04:58;;;;;;;22.60;9.63;;;;;;;10.81;32.85;100852.03;5016376;28;20082;-79
2022/01/20 11:07:24;;;;;;;20.67;8.70;;;;;;;10.92;32.31;100840.41;5016158;28;20438;-79
2022/01/20 11:09:56;;;;;;;26.92;10.75;;;;;;;10.69;32.50;100834.16;5033487;28;20033;-81
2022/01/20 11:12:21;;;;;;;23.25;12.15;;;;;;;10.84;32.20;100841.03;5033526;28;20036;-79
2022/01/20 11:14:51;;;;;;;25.85;9.00;;;;;;;11.03;32.88;100837.72;5032138;28;20029;-79
2022/01/20 11:17:28;;;;;;;30.33;9.93;;;;;;;11.23;31.74;100828.03;5033151;28;20067;-78
2022/01/20 11:20:02;;;;;;;45.75;17.70;;;;;;;11.41;31.74;100831.94;5033439;28;20025;-79
2022/01/20 11:22:27;;;;;;;25.45;9.32;;;;;;;11.52;31.49;100823.84;5033711;28;20444;-79
2022/01/20 11:25:08;;;;;;;32.08;9.18;;;;;;;11.80;30.59;100831.38;5033526;28;20080;-79
2022/01/20 11:27:39;;;;;;;17.98;8.18;;;;;;;11.92;30.49;100816.03;5033420;28;20021;-79
2022/01/20 11:30:14;;;;;;;22.48;8.75;;;;;;;12.18;29.89;100816.50;5033499;28;20052;-79
2022/01/20 11:32:40;;;;;;;20.95;8.32;;;;;;;12.32;29.82;100813.50;5033628;28;20083;-80
2022/01/20 11:35:09;;;;;;;16.48;6.80;;;;;;;12.27;29.15;100784.22;5033299;28;20446;-78
2022/01/20 11:37:38;;;;;;;32.13;10.48;;;;;;;12.52;29.63;100789.22;5033611;28;20029;-80
2022/01/20 11:40:13;;;;;;;17.02;8.63;;;;;;;12.69;29.50;100805.78;5033415;28;20057;-80
2022/01/20 11:42:39;;;;;;;29.60;8.88;;;;;;;12.79;29.78;100795.88;5035328;28;20032;-81
2022/01/20 11:45:28;;;;;;;14.50;6.25;;;;;;;12.87;28.55;100788.81;5033707;28;20017;-79
2022/01/20 11:47:55;;;;;;;22.33;7.90;;;;;;;12.75;28.50;100789.88;5033874;28;20051;-79
2022/01/20 11:50:21;;;;;;;19.63;7.72;;;;;;;12.74;28.18;100785.50;5000187;28;20128;-80
2022/01/20 11:52:47;;;;;;;15.55;7.07;;;;;;;12.76;28.34;100780.81;5033149;28;20110;-80
2022/01/20 11:55:17;;;;;;;20.33;7.53;;;;;;;12.73;28.08;100775.69;5037112;28;20064;-79
2022/01/20 11:57:43;;;;;;;14.18;7.57;;;;;;;12.73;28.04;100781.09;5032927;28;20041;-80
2022/01/20 12:00:25;;;;;;;17.98;8.43;;;;;;;12.85;28.55;100785.41;5033170;28;20530;-79
2022/01/20 12:02:51;;;;;;;18.60;8.98;;;;;;;12.97;28.42;100781.59;5033867;28;20049;-80
2022/01/20 12:05:18;;;;;;;23.55;7.63;;;;;;;13.06;28.05;100777.22;5033741;28;20041;-80
2022/01/20 12:07:44;;;;;;;17.65;6.57;;;;;;;13.02;27.84;100771.28;5032922;28;20029;-79
2022/01/20 12:10:17;;;;;;;14.40;6.78;;;;;;;13.18;27.55;100764.53;5032556;28;20029;-79
2022/01/20 12:12:43;;;;;;;20.58;6.43;;;;;;;13.08;27.38;100748.28;5033513;28;20025;-80
2022/01/20 12:15:22;;;;;;;23.80;7.28;;;;;;;13.19;27.41;100756.28;5033839;28;20036;-80
2022/01/20 12:17:55;;;;;;;19.85;7.30;;;;;;;13.27;27.67;100747.50;5032836;28;20032;-80
2022/01/20 12:20:23;;;;;;;23.13;8.50;;;;;;;13.30;27.21;100741.81;5033093;28;20356;-79
2022/01/20 12:22:49;;;;;;;31.92;8.18;;;;;;;13.26;27.05;100734.97;5033458;28;20096;-79
2022/01/20 12:25:21;;;;;;;20.00;7.03;;;;;;;13.27;27.07;100739.38;5033774;28;20033;-81
2022/01/20 12:27:47;;;;;;;36.97;6.87;;;;;;;13.19;27.15;100740.06;5033413;28;20108;-80
2022/01/20 12:30:19;;;;;;;13.30;6.88;;;;;;;13.17;27.38;100735.81;5033080;28;20270;-79
2022/01/20 12:32:58;;;;;;;19.75;7.00;;;;;;;13.00;27.85;100730.03;5032560;28;20029;-80